sensor_id;sensor_type;location;lat;lon;timestamp;temperature;humidity
24664;DHT22;12791;50.992;13.788;2023-03-13T00:00:47;8.40;99.90
24664;DHT22;12791;50.992;13.788;2023-03-13T00:03:14;8.20;99.90
24664;DHT22;12791;50.992;13.788;2023-03-13T00:05:42;8.20;99.90
24664;DHT22;12791;50.992;13.788;2023-03-13T00:08:08;8.30;99.90
24664;DHT22;12791;50.992;13.788;2023-03-13T00:10:36;8.30;99.90
24664;DHT22;12791;50.992;13.788;2023-03-13T00:13:02;8.30;99.90
24664;DHT22;12791;50.992;13.788;2023-03-13T00:15:29;8.30;99.90
24664;DHT22;12791;50.992;13.788;2023-03-13T00:17:56;8.30;99.90
24664;DHT22;12791;50.992;13.788;2023-03-13T00:20:22;8.30;99.90
24664;DHT22;12791;50.992;13.788;2023-03-13T00:22:50;8.30;99.90
24664;DHT22;12791;50.992;13.788;2023-03-13T00:25:17;8.30;99.90
24664;DHT22;12791;50.992;13.788;2023-03-13T00:27:43;8.40;99.90
24664;DHT22;12791;50.992;13.788;2023-03-13T00:30:11;8.20;99.90
24664;DHT22;12791;50.992;13.788;2023-03-13T00:32:40;8.30;99.90
24664;DHT22;12791;50.992;13.788;2023-03-13T00:35:07;8.30;99.90
24664;DHT22;12791;50.992;13.788;2023-03-13T00:37:33;8.40;99.90
24664;DHT22;12791;50.992;13.788;2023-03-13T00:40:01;8.50;99.90
24664;DHT22;12791;50.992;13.788;2023-03-13T00:42:29;8.40;99.90
24664;DHT22;12791;50.992;13.788;2023-03-13T00:44:55;8.60;99.90
24664;DHT22;12791;50.992;13.788;2023-03-13T00:47:22;8.50;99.90
24664;DHT22;12791;50.992;13.788;2023-03-13T00:49:49;8.30;99.90
24664;DHT22;12791;50.992;13.788;2023-03-13T00:52:15;8.30;99.90
24664;DHT22;12791;50.992;13.788;2023-03-13T00:54:42;8.40;99.90
24664;DHT22;12791;50.992;13.788;2023-03-13T00:57:10;8.30;99.90
24664;DHT22;12791;50.992;13.788;2023-03-13T00:59:36;8.50;99.90
24664;DHT22;12791;50.992;13.788;2023-03-13T01:02:03;8.30;99.90
24664;DHT22;12791;50.992;13.788;2023-03-13T01:04:29;8.40;99.90
24664;DHT22;12791;50.992;13.788;2023-03-13T01:06:56;8.50;99.90
24664;DHT22;12791;50.992;13.788;2023-03-13T01:09:23;8.30;99.90
24664;DHT22;12791;50.992;13.788;2023-03-13T01:11:49;8.40;99.90
24664;DHT22;12791;50.992;13.788;2023-03-13T01:14:19;8.40;99.90
24664;DHT22;12791;50.992;13.788;2023-03-13T01:16:46;8.40;99.90
24664;DHT22;12791;50.992;13.788;2023-03-13T01:19:14;8.50;99.90
24664;DHT22;12791;50.992;13.788;2023-03-13T01:21:42;8.40;99.90
24664;DHT22;12791;50.992;13.788;2023-03-13T01:24:09;8.40;99.90
24664;DHT22;12791;50.992;13.788;2023-03-13T01:26:35;8.40;99.90
24664;DHT22;12791;50.992;13.788;2023-03-13T01:29:02;8.40;99.90
24664;DHT22;12791;50.992;13.788;2023-03-13T01:31:32;8.40;99.90
24664;DHT22;12791;50.992;13.788;2023-03-13T01:34:00;8.40;99.90
24664;DHT22;12791;50.992;13.788;2023-03-13T01:36:27;8.40;99.90
24664;DHT22;12791;50.992;13.788;2023-03-13T01:38:55;8.60;99.90
24664;DHT22;12791;50.992;13.788;2023-03-13T01:41:22;8.50;99.90
24664;DHT22;12791;50.992;13.788;2023-03-13T01:43:50;8.40;99.90
24664;DHT22;12791;50.992;13.788;2023-03-13T01:46:17;8.40;99.90
24664;DHT22;12791;50.992;13.788;2023-03-13T01:48:49;8.40;99.90
24664;DHT22;12791;50.992;13.788;2023-03-13T01:51:21;8.40;99.90
24664;DHT22;12791;50.992;13.788;2023-03-13T01:53:52;8.40;99.90
24664;DHT22;12791;50.992;13.788;2023-03-13T01:56:23;8.40;99.90
24664;DHT22;12791;50.992;13.788;2023-03-13T01:58:52;8.40;99.90
24664;DHT22;12791;50.992;13.788;2023-03-13T02:01:19;8.50;99.90
24664;DHT22;12791;50.992;13.788;2023-03-13T02:03:48;8.50;99.90
24664;DHT22;12791;50.992;13.788;2023-03-13T02:06:16;8.40;99.90
24664;DHT22;12791;50.992;13.788;2023-03-13T02:08:46;8.30;99.90
24664;DHT22;12791;50.992;13.788;2023-03-13T02:11:23;8.60;99.90
24664;DHT22;12791;50.992;13.788;2023-03-13T02:13:53;8.60;99.90
24664;DHT22;12791;50.992;13.788;2023-03-13T02:16:21;8.40;99.90
24664;DHT22;12791;50.992;13.788;2023-03-13T02:18:49;8.50;99.90
24664;DHT22;12791;50.992;13.788;2023-03-13T02:21:24;8.40;99.90
24664;DHT22;12791;50.992;13.788;2023-03-13T02:23:56;8.40;99.90
24664;DHT22;12791;50.992;13.788;2023-03-13T02:26:25;8.40;99.90
24664;DHT22;12791;50.992;13.788;2023-03-13T02:28:52;8.40;99.90
24664;DHT22;12791;50.992;13.788;2023-03-13T02:31:19;8.40;99.90
24664;DHT22;12791;50.992;13.788;2023-03-13T02:33:45;8.60;99.90
24664;DHT22;12791;50.992;13.788;2023-03-13T02:36:13;8.40;99.90
24664;DHT22;12791;50.992;13.788;2023-03-13T02:38:45;8.30;99.90
24664;DHT22;12791;50.992;13.788;2023-03-13T02:41:12;8.30;99.90
24664;DHT22;12791;50.992;13.788;2023-03-13T02:43:41;8.40;99.90
24664;DHT22;12791;50.992;13.788;2023-03-13T02:46:10;8.50;99.90
24664;DHT22;12791;50.992;13.788;2023-03-13T02:48:39;8.30;99.90
24664;DHT22;12791;50.992;13.788;2023-03-13T02:51:11;8.30;99.90
24664;DHT22;12791;50.992;13.788;2023-03-13T02:53:40;8.30;99.90
24664;DHT22;12791;50.992;13.788;2023-03-13T02:56:07;8.30;99.90
24664;DHT22;12791;50.992;13.788;2023-03-13T02:58:39;8.30;99.90
24664;DHT22;12791;50.992;13.788;2023-03-13T03:01:07;8.30;99.90
24664;DHT22;12791;50.992;13.788;2023-03-13T03:03:34;8.40;99.90
24664;DHT22;12791;50.992;13.788;2023-03-13T03:06:01;8.40;99.90
24664;DHT22;12791;50.992;13.788;2023-03-13T03:08:28;8.40;99.90
24664;DHT22;12791;50.992;13.788;2023-03-13T03:10:55;8.40;99.90
24664;DHT22;12791;50.992;13.788;2023-03-13T03:13:21;8.40;99.90
24664;DHT22;12791;50.992;13.788;2023-03-13T03:15:48;8.70;99.90
24664;DHT22;12791;50.992;13.788;2023-03-13T03:18:16;8.50;99.90
24664;DHT22;12791;50.992;13.788;2023-03-13T03:20:42;8.50;99.90
24664;DHT22;12791;50.992;13.788;2023-03-13T03:23:09;8.80;99.90
24664;DHT22;12791;50.992;13.788;2023-03-13T03:25:36;8.50;99.90
24664;DHT22;12791;50.992;13.788;2023-03-13T03:28:02;8.70;99.90
24664;DHT22;12791;50.992;13.788;2023-03-13T03:30:29;8.50;99.90
24664;DHT22;12791;50.992;13.788;2023-03-13T03:32:55;8.50;99.90
24664;DHT22;12791;50.992;13.788;2023-03-13T03:35:23;8.70;99.90
24664;DHT22;12791;50.992;13.788;2023-03-13T03:37:50;8.50;99.90
24664;DHT22;12791;50.992;13.788;2023-03-13T03:40:17;8.80;99.90
24664;DHT22;12791;50.992;13.788;2023-03-13T03:42:45;8.70;99.90
24664;DHT22;12791;50.992;13.788;2023-03-13T03:45:12;8.50;99.90
24664;DHT22;12791;50.992;13.788;2023-03-13T03:47:38;8.60;99.90
24664;DHT22;12791;50.992;13.788;2023-03-13T03:50:06;8.40;99.90
24664;DHT22;12791;50.992;13.788;2023-03-13T03:52:33;8.50;99.90
24664;DHT22;12791;50.992;13.788;2023-03-13T03:55:00;8.60;99.90
24664;DHT22;12791;50.992;13.788;2023-03-13T03:57:27;8.50;99.90
24664;DHT22;12791;50.992;13.788;2023-03-13T03:59:53;8.60;99.90
24664;DHT22;12791;50.992;13.788;2023-03-13T04:02:20;8.50;99.90
24664;DHT22;12791;50.992;13.788;2023-03-13T04:04:46;8.60;99.90
24664;DHT22;12791;50.992;13.788;2023-03-13T04:07:13;8.60;99.90
24664;DHT22;12791;50.992;13.788;2023-03-13T04:09:41;8.70;99.90
24664;DHT22;12791;50.992;13.788;2023-03-13T04:12:08;8.60;99.90
24664;DHT22;12791;50.992;13.788;2023-03-13T04:14:35;8.60;99.90
24664;DHT22;12791;50.992;13.788;2023-03-13T04:17:01;8.60;99.90
24664;DHT22;12791;50.992;13.788;2023-03-13T04:19:28;8.60;99.90
24664;DHT22;12791;50.992;13.788;2023-03-13T04:21:54;8.90;99.90
24664;DHT22;12791;50.992;13.788;2023-03-13T04:24:21;8.60;99.90
24664;DHT22;12791;50.992;13.788;2023-03-13T04:26:49;8.60;99.90
24664;DHT22;12791;50.992;13.788;2023-03-13T04:29:15;8.70;99.90
24664;DHT22;12791;50.992;13.788;2023-03-13T04:31:42;8.60;99.90
24664;DHT22;12791;50.992;13.788;2023-03-13T04:34:08;8.60;99.90
24664;DHT22;12791;50.992;13.788;2023-03-13T04:36:35;8.60;99.90
24664;DHT22;12791;50.992;13.788;2023-03-13T04:39:02;8.60;99.90
24664;DHT22;12791;50.992;13.788;2023-03-13T04:41:28;8.60;99.90
24664;DHT22;12791;50.992;13.788;2023-03-13T04:43:56;8.40;99.90
24664;DHT22;12791;50.992;13.788;2023-03-13T04:46:23;8.70;99.90
24664;DHT22;12791;50.992;13.788;2023-03-13T04:48:50;8.60;99.90
24664;DHT22;12791;50.992;13.788;2023-03-13T04:51:16;8.50;99.90
24664;DHT22;12791;50.992;13.788;2023-03-13T04:53:43;8.60;99.90
24664;DHT22;12791;50.992;13.788;2023-03-13T04:56:10;8.60;99.90
24664;DHT22;12791;50.992;13.788;2023-03-13T04:58:37;8.50;99.90
24664;DHT22;12791;50.992;13.788;2023-03-13T05:01:05;8.70;99.90
24664;DHT22;12791;50.992;13.788;2023-03-13T05:03:31;8.40;99.90
24664;DHT22;12791;50.992;13.788;2023-03-13T05:05:58;8.50;99.90
24664;DHT22;12791;50.992;13.788;2023-03-13T05:08:24;8.60;99.90
24664;DHT22;12791;50.992;13.788;2023-03-13T05:10:51;8.60;99.90
24664;DHT22;12791;50.992;13.788;2023-03-13T05:13:18;8.60;99.90
24664;DHT22;12791;50.992;13.788;2023-03-13T05:15:44;8.60;99.90
24664;DHT22;12791;50.992;13.788;2023-03-13T05:18:12;8.50;99.90
24664;DHT22;12791;50.992;13.788;2023-03-13T05:20:39;8.60;99.90
24664;DHT22;12791;50.992;13.788;2023-03-13T05:23:05;8.90;99.90
24664;DHT22;12791;50.992;13.788;2023-03-13T05:25:32;8.80;99.90
24664;DHT22;12791;50.992;13.788;2023-03-13T05:27:58;8.70;99.90
24664;DHT22;12791;50.992;13.788;2023-03-13T05:30:25;8.70;99.90
24664;DHT22;12791;50.992;13.788;2023-03-13T05:32:51;8.70;99.90
24664;DHT22;12791;50.992;13.788;2023-03-13T05:35:20;8.70;99.90
24664;DHT22;12791;50.992;13.788;2023-03-13T05:37:46;8.90;99.90
24664;DHT22;12791;50.992;13.788;2023-03-13T05:40:13;8.90;99.90
24664;DHT22;12791;50.992;13.788;2023-03-13T05:42:40;8.60;99.90
24664;DHT22;12791;50.992;13.788;2023-03-13T05:45:08;8.80;99.90
24664;DHT22;12791;50.992;13.788;2023-03-13T05:47:35;8.80;99.90
24664;DHT22;12791;50.992;13.788;2023-03-13T05:50:03;8.80;99.90
24664;DHT22;12791;50.992;13.788;2023-03-13T05:52:31;9.00;99.90
24664;DHT22;12791;50.992;13.788;2023-03-13T05:54:58;8.80;99.90
24664;DHT22;12791;50.992;13.788;2023-03-13T05:57:25;8.90;99.90
24664;DHT22;12791;50.992;13.788;2023-03-13T05:59:52;9.00;99.90
24664;DHT22;12791;50.992;13.788;2023-03-13T06:02:18;9.00;99.90
24664;DHT22;12791;50.992;13.788;2023-03-13T06:04:46;9.00;99.90
24664;DHT22;12791;50.992;13.788;2023-03-13T06:07:13;9.10;99.90
24664;DHT22;12791;50.992;13.788;2023-03-13T06:09:40;9.00;99.90
24664;DHT22;12791;50.992;13.788;2023-03-13T06:12:08;9.10;99.90
24664;DHT22;12791;50.992;13.788;2023-03-13T06:14:35;9.20;99.90
24664;DHT22;12791;50.992;13.788;2023-03-13T06:17:02;9.10;99.90
24664;DHT22;12791;50.992;13.788;2023-03-13T06:19:29;9.30;99.90
24664;DHT22;12791;50.992;13.788;2023-03-13T06:21:56;9.10;99.90
24664;DHT22;12791;50.992;13.788;2023-03-13T06:24:22;9.00;99.90
24664;DHT22;12791;50.992;13.788;2023-03-13T06:26:50;9.00;99.90
24664;DHT22;12791;50.992;13.788;2023-03-13T06:29:17;9.00;99.90
24664;DHT22;12791;50.992;13.788;2023-03-13T06:31:44;9.20;99.90
24664;DHT22;12791;50.992;13.788;2023-03-13T06:34:11;9.10;99.90
24664;DHT22;12791;50.992;13.788;2023-03-13T06:36:37;9.10;99.90
24664;DHT22;12791;50.992;13.788;2023-03-13T06:39:05;9.10;99.90
24664;DHT22;12791;50.992;13.788;2023-03-13T06:41:32;9.20;99.90
24664;DHT22;12791;50.992;13.788;2023-03-13T06:44:00;9.30;99.90
24664;DHT22;12791;50.992;13.788;2023-03-13T06:46:27;9.30;99.90
24664;DHT22;12791;50.992;13.788;2023-03-13T06:48:54;9.20;99.90
24664;DHT22;12791;50.992;13.788;2023-03-13T06:51:21;9.40;99.90
24664;DHT22;12791;50.992;13.788;2023-03-13T06:53:48;9.40;99.90
24664;DHT22;12791;50.992;13.788;2023-03-13T06:56:16;9.40;99.90
24664;DHT22;12791;50.992;13.788;2023-03-13T06:58:45;9.50;99.90
24664;DHT22;12791;50.992;13.788;2023-03-13T07:01:14;9.50;99.90
24664;DHT22;12791;50.992;13.788;2023-03-13T07:03:42;9.50;99.90
24664;DHT22;12791;50.992;13.788;2023-03-13T07:06:09;9.60;99.90
24664;DHT22;12791;50.992;13.788;2023-03-13T07:08:37;9.60;99.90
24664;DHT22;12791;50.992;13.788;2023-03-13T07:11:05;9.50;99.90
24664;DHT22;12791;50.992;13.788;2023-03-13T07:13:32;9.50;99.90
24664;DHT22;12791;50.992;13.788;2023-03-13T07:16:00;9.60;99.90
24664;DHT22;12791;50.992;13.788;2023-03-13T07:18:30;9.60;99.90
24664;DHT22;12791;50.992;13.788;2023-03-13T07:20:58;9.70;99.90
24664;DHT22;12791;50.992;13.788;2023-03-13T07:23:26;9.70;99.90
24664;DHT22;12791;50.992;13.788;2023-03-13T07:25:53;9.80;99.90
24664;DHT22;12791;50.992;13.788;2023-03-13T07:28:20;9.80;99.90
24664;DHT22;12791;50.992;13.788;2023-03-13T07:30:47;9.80;99.90
24664;DHT22;12791;50.992;13.788;2023-03-13T07:33:14;10.00;99.90
24664;DHT22;12791;50.992;13.788;2023-03-13T07:35:46;9.80;99.90
24664;DHT22;12791;50.992;13.788;2023-03-13T07:38:13;10.10;99.90
24664;DHT22;12791;50.992;13.788;2023-03-13T07:40:46;9.90;99.90
24664;DHT22;12791;50.992;13.788;2023-03-13T07:43:13;9.90;99.90
24664;DHT22;12791;50.992;13.788;2023-03-13T07:45:49;9.90;99.90
24664;DHT22;12791;50.992;13.788;2023-03-13T07:48:15;9.90;99.90
24664;DHT22;12791;50.992;13.788;2023-03-13T07:50:43;9.90;99.90
24664;DHT22;12791;50.992;13.788;2023-03-13T07:53:10;9.90;99.90
24664;DHT22;12791;50.992;13.788;2023-03-13T07:55:37;9.80;99.90
24664;DHT22;12791;50.992;13.788;2023-03-13T07:58:03;9.80;99.90
24664;DHT22;12791;50.992;13.788;2023-03-13T08:00:30;9.80;99.90
24664;DHT22;12791;50.992;13.788;2023-03-13T08:02:56;9.80;99.90
24664;DHT22;12791;50.992;13.788;2023-03-13T08:05:23;9.80;99.90
24664;DHT22;12791;50.992;13.788;2023-03-13T08:07:51;10.00;99.90
24664;DHT22;12791;50.992;13.788;2023-03-13T08:10:18;9.80;99.90
24664;DHT22;12791;50.992;13.788;2023-03-13T08:12:44;9.60;99.90
24664;DHT22;12791;50.992;13.788;2023-03-13T08:15:11;9.80;99.90
24664;DHT22;12791;50.992;13.788;2023-03-13T08:17:37;9.80;99.90
24664;DHT22;12791;50.992;13.788;2023-03-13T08:20:05;9.80;99.90
24664;DHT22;12791;50.992;13.788;2023-03-13T08:22:33;10.00;99.90
24664;DHT22;12791;50.992;13.788;2023-03-13T08:25:02;9.80;99.90
24664;DHT22;12791;50.992;13.788;2023-03-13T08:27:29;9.90;99.90
24664;DHT22;12791;50.992;13.788;2023-03-13T08:29:56;9.80;99.90
24664;DHT22;12791;50.992;13.788;2023-03-13T08:32:22;9.90;99.90
24664;DHT22;12791;50.992;13.788;2023-03-13T08:34:49;9.80;99.90
24664;DHT22;12791;50.992;13.788;2023-03-13T08:37:15;10.00;99.90
24664;DHT22;12791;50.992;13.788;2023-03-13T08:39:42;10.00;99.90
24664;DHT22;12791;50.992;13.788;2023-03-13T08:42:11;10.10;99.90
24664;DHT22;12791;50.992;13.788;2023-03-13T08:44:39;10.00;99.90
24664;DHT22;12791;50.992;13.788;2023-03-13T08:47:05;10.10;99.90
24664;DHT22;12791;50.992;13.788;2023-03-13T08:49:32;10.10;99.90
24664;DHT22;12791;50.992;13.788;2023-03-13T08:51:59;10.10;99.90
24664;DHT22;12791;50.992;13.788;2023-03-13T08:54:26;9.90;99.90
24664;DHT22;12791;50.992;13.788;2023-03-13T08:56:52;10.20;99.90
24664;DHT22;12791;50.992;13.788;2023-03-13T08:59:20;10.30;99.90
24664;DHT22;12791;50.992;13.788;2023-03-13T09:01:47;10.40;99.90
24664;DHT22;12791;50.992;13.788;2023-03-13T09:04:14;10.40;99.90
24664;DHT22;12791;50.992;13.788;2023-03-13T09:06:40;10.50;99.90
24664;DHT22;12791;50.992;13.788;2023-03-13T09:09:08;10.50;99.90
24664;DHT22;12791;50.992;13.788;2023-03-13T09:11:36;10.60;99.90
24664;DHT22;12791;50.992;13.788;2023-03-13T09:14:03;10.60;99.90
24664;DHT22;12791;50.992;13.788;2023-03-13T09:16:33;10.70;99.90
24664;DHT22;12791;50.992;13.788;2023-03-13T09:19:00;10.80;99.90
24664;DHT22;12791;50.992;13.788;2023-03-13T09:21:29;10.80;99.90
24664;DHT22;12791;50.992;13.788;2023-03-13T09:23:56;10.80;99.90
24664;DHT22;12791;50.992;13.788;2023-03-13T09:26:24;10.80;99.90
24664;DHT22;12791;50.992;13.788;2023-03-13T09:28:51;10.80;99.90
24664;DHT22;12791;50.992;13.788;2023-03-13T09:31:20;10.80;99.90
24664;DHT22;12791;50.992;13.788;2023-03-13T09:33:49;10.80;99.90
24664;DHT22;12791;50.992;13.788;2023-03-13T09:36:16;10.80;99.90
24664;DHT22;12791;50.992;13.788;2023-03-13T09:38:44;10.80;99.90
24664;DHT22;12791;50.992;13.788;2023-03-13T09:41:25;11.10;99.90
24664;DHT22;12791;50.992;13.788;2023-03-13T09:43:58;10.80;99.90
24664;DHT22;12791;50.992;13.788;2023-03-13T09:46:32;10.70;99.90
24664;DHT22;12791;50.992;13.788;2023-03-13T09:49:09;10.70;99.90
24664;DHT22;12791;50.992;13.788;2023-03-13T09:51:38;10.70;99.90
24664;DHT22;12791;50.992;13.788;2023-03-13T09:54:11;10.70;99.90
24664;DHT22;12791;50.992;13.788;2023-03-13T09:56:44;10.70;99.90
24664;DHT22;12791;50.992;13.788;2023-03-13T09:59:15;10.70;99.90
24664;DHT22;12791;50.992;13.788;2023-03-13T10:01:45;10.80;99.90
24664;DHT22;12791;50.992;13.788;2023-03-13T10:04:30;10.90;99.90
24664;DHT22;12791;50.992;13.788;2023-03-13T10:06:58;11.00;99.90
24664;DHT22;12791;50.992;13.788;2023-03-13T10:09:27;11.00;99.90
24664;DHT22;12791;50.992;13.788;2023-03-13T10:12:03;11.10;99.90
24664;DHT22;12791;50.992;13.788;2023-03-13T10:14:37;11.10;99.90
24664;DHT22;12791;50.992;13.788;2023-03-13T10:17:16;11.20;99.90
24664;DHT22;12791;50.992;13.788;2023-03-13T10:19:50;11.20;99.90
24664;DHT22;12791;50.992;13.788;2023-03-13T10:22:23;11.20;99.90
24664;DHT22;12791;50.992;13.788;2023-03-13T10:24:54;11.30;99.90
24664;DHT22;12791;50.992;13.788;2023-03-13T10:27:21;11.30;99.90
24664;DHT22;12791;50.992;13.788;2023-03-13T10:29:48;11.40;99.90
24664;DHT22;12791;50.992;13.788;2023-03-13T10:32:16;11.40;99.90
24664;DHT22;12791;50.992;13.788;2023-03-13T10:34:54;11.50;99.90
24664;DHT22;12791;50.992;13.788;2023-03-13T10:37:23;11.50;99.90
24664;DHT22;12791;50.992;13.788;2023-03-13T10:39:50;11.50;99.90
24664;DHT22;12791;50.992;13.788;2023-03-13T10:42:21;11.60;99.90
24664;DHT22;12791;50.992;13.788;2023-03-13T10:44:55;11.70;99.90
24664;DHT22;12791;50.992;13.788;2023-03-13T10:47:23;11.70;99.90
24664;DHT22;12791;50.992;13.788;2023-03-13T10:49:54;11.80;99.90
24664;DHT22;12791;50.992;13.788;2023-03-13T10:52:30;11.80;99.90
24664;DHT22;12791;50.992;13.788;2023-03-13T10:54:59;11.80;99.90
24664;DHT22;12791;50.992;13.788;2023-03-13T10:57:29;11.90;99.90
24664;DHT22;12791;50.992;13.788;2023-03-13T10:59:56;12.00;99.90
24664;DHT22;12791;50.992;13.788;2023-03-13T11:02:26;12.00;99.90
24664;DHT22;12791;50.992;13.788;2023-03-13T11:04:55;12.10;99.90
24664;DHT22;12791;50.992;13.788;2023-03-13T11:07:26;12.20;99.90
24664;DHT22;12791;50.992;13.788;2023-03-13T11:09:58;12.20;99.90
24664;DHT22;12791;50.992;13.788;2023-03-13T11:12:25;12.30;99.90
24664;DHT22;12791;50.992;13.788;2023-03-13T11:14:56;12.30;99.90
24664;DHT22;12791;50.992;13.788;2023-03-13T11:17:29;12.40;99.90
24664;DHT22;12791;50.992;13.788;2023-03-13T11:20:11;12.50;99.90
24664;DHT22;12791;50.992;13.788;2023-03-13T11:22:48;12.50;99.90
24664;DHT22;12791;50.992;13.788;2023-03-13T11:25:21;12.60;99.90
24664;DHT22;12791;50.992;13.788;2023-03-13T11:28:05;12.60;99.90
24664;DHT22;12791;50.992;13.788;2023-03-13T11:30:55;12.70;99.90
24664;DHT22;12791;50.992;13.788;2023-03-13T11:33:30;12.80;99.90
24664;DHT22;12791;50.992;13.788;2023-03-13T11:36:11;12.80;99.90
24664;DHT22;12791;50.992;13.788;2023-03-13T11:38:41;12.80;99.90
24664;DHT22;12791;50.992;13.788;2023-03-13T11:41:18;12.80;99.90
24664;DHT22;12791;50.992;13.788;2023-03-13T11:44:03;12.70;99.90
24664;DHT22;12791;50.992;13.788;2023-03-13T11:46:47;12.80;99.90
24664;DHT22;12791;50.992;13.788;2023-03-13T11:49:45;12.80;99.90
24664;DHT22;12791;50.992;13.788;2023-03-13T11:52:26;12.80;99.90
24664;DHT22;12791;50.992;13.788;2023-03-13T11:58:03;12.70;99.90
24664;DHT22;12791;50.992;13.788;2023-03-13T12:00:37;12.70;99.90
24664;DHT22;12791;50.992;13.788;2023-03-13T12:03:11;12.70;99.90
24664;DHT22;12791;50.992;13.788;2023-03-13T12:05:44;12.70;99.90
24664;DHT22;12791;50.992;13.788;2023-03-13T12:08:19;12.70;99.90
24664;DHT22;12791;50.992;13.788;2023-03-13T12:10:53;12.70;99.90
24664;DHT22;12791;50.992;13.788;2023-03-13T12:13:26;12.70;99.90
24664;DHT22;12791;50.992;13.788;2023-03-13T12:15:56;12.70;99.90
24664;DHT22;12791;50.992;13.788;2023-03-13T12:18:28;12.70;99.90
24664;DHT22;12791;50.992;13.788;2023-03-13T12:21:00;12.70;99.90
24664;DHT22;12791;50.992;13.788;2023-03-13T12:23:39;12.80;99.90
24664;DHT22;12791;50.992;13.788;2023-03-13T12:26:11;12.80;99.90
24664;DHT22;12791;50.992;13.788;2023-03-13T12:28:42;12.80;99.90
24664;DHT22;12791;50.992;13.788;2023-03-13T12:31:18;12.80;99.90
24664;DHT22;12791;50.992;13.788;2023-03-13T12:33:52;12.80;99.90
24664;DHT22;12791;50.992;13.788;2023-03-13T12:36:21;12.90;99.90
24664;DHT22;12791;50.992;13.788;2023-03-13T12:38:55;12.90;99.90
24664;DHT22;12791;50.992;13.788;2023-03-13T12:41:25;13.00;99.90
24664;DHT22;12791;50.992;13.788;2023-03-13T12:43:54;13.10;99.90
24664;DHT22;12791;50.992;13.788;2023-03-13T12:46:35;13.20;99.90
24664;DHT22;12791;50.992;13.788;2023-03-13T12:49:28;13.20;99.90
24664;DHT22;12791;50.992;13.788;2023-03-13T12:52:16;13.30;99.90
24664;DHT22;12791;50.992;13.788;2023-03-13T12:54:58;13.40;99.90
24664;DHT22;12791;50.992;13.788;2023-03-13T13:00:28;13.40;99.90
24664;DHT22;12791;50.992;13.788;2023-03-13T13:03:08;13.50;99.90
24664;DHT22;12791;50.992;13.788;2023-03-13T13:05:36;13.50;99.90
24664;DHT22;12791;50.992;13.788;2023-03-13T13:08:02;13.50;99.90
24664;DHT22;12791;50.992;13.788;2023-03-13T13:10:31;13.50;99.90
24664;DHT22;12791;50.992;13.788;2023-03-13T13:13:18;13.50;99.90
24664;DHT22;12791;50.992;13.788;2023-03-13T13:15:59;13.60;99.90
24664;DHT22;12791;50.992;13.788;2023-03-13T13:18:27;13.60;99.90
24664;DHT22;12791;50.992;13.788;2023-03-13T13:21:19;13.70;99.90
24664;DHT22;12791;50.992;13.788;2023-03-13T13:23:47;13.70;99.90
24664;DHT22;12791;50.992;13.788;2023-03-13T13:26:49;13.80;99.90
24664;DHT22;12791;50.992;13.788;2023-03-13T13:32:36;13.80;99.90
24664;DHT22;12791;50.992;13.788;2023-03-13T13:35:10;13.80;99.90
24664;DHT22;12791;50.992;13.788;2023-03-13T13:37:43;14.00;99.90
24664;DHT22;12791;50.992;13.788;2023-03-13T13:40:22;14.10;99.90
24664;DHT22;12791;50.992;13.788;2023-03-13T13:42:54;14.20;99.90
24664;DHT22;12791;50.992;13.788;2023-03-13T13:45:26;14.30;99.90
24664;DHT22;12791;50.992;13.788;2023-03-13T13:48:13;14.30;99.90
24664;DHT22;12791;50.992;13.788;2023-03-13T13:51:22;14.40;99.90
24664;DHT22;12791;50.992;13.788;2023-03-13T13:53:51;14.40;99.90
24664;DHT22;12791;50.992;13.788;2023-03-13T13:56:33;14.40;99.90
24664;DHT22;12791;50.992;13.788;2023-03-13T13:59:04;14.40;99.90
24664;DHT22;12791;50.992;13.788;2023-03-13T14:01:32;14.50;99.90
24664;DHT22;12791;50.992;13.788;2023-03-13T14:04:09;14.50;99.90
24664;DHT22;12791;50.992;13.788;2023-03-13T14:06:38;14.50;99.90
24664;DHT22;12791;50.992;13.788;2023-03-13T14:09:14;14.60;99.90
24664;DHT22;12791;50.992;13.788;2023-03-13T14:11:45;14.60;99.90
24664;DHT22;12791;50.992;13.788;2023-03-13T14:14:14;14.60;99.90
24664;DHT22;12791;50.992;13.788;2023-03-13T14:16:43;14.60;99.90
24664;DHT22;12791;50.992;13.788;2023-03-13T14:19:21;14.60;99.90
24664;DHT22;12791;50.992;13.788;2023-03-13T14:21:55;14.70;99.90
24664;DHT22;12791;50.992;13.788;2023-03-13T14:24:22;14.60;99.90
24664;DHT22;12791;50.992;13.788;2023-03-13T14:26:49;14.70;99.90
24664;DHT22;12791;50.992;13.788;2023-03-13T14:29:17;14.70;99.90
24664;DHT22;12791;50.992;13.788;2023-03-13T14:31:51;14.70;99.90
24664;DHT22;12791;50.992;13.788;2023-03-13T14:34:18;14.70;99.90
24664;DHT22;12791;50.992;13.788;2023-03-13T14:36:45;14.70;99.90
24664;DHT22;12791;50.992;13.788;2023-03-13T14:39:18;14.70;99.90
24664;DHT22;12791;50.992;13.788;2023-03-13T14:41:46;14.70;99.90
24664;DHT22;12791;50.992;13.788;2023-03-13T14:44:18;14.60;99.90
24664;DHT22;12791;50.992;13.788;2023-03-13T14:46:46;14.60;99.90
24664;DHT22;12791;50.992;13.788;2023-03-13T14:49:15;14.60;99.90
24664;DHT22;12791;50.992;13.788;2023-03-13T14:51:43;14.60;99.90
24664;DHT22;12791;50.992;13.788;2023-03-13T14:54:29;14.60;99.90
24664;DHT22;12791;50.992;13.788;2023-03-13T14:57:14;14.70;99.90
24664;DHT22;12791;50.992;13.788;2023-03-13T14:59:41;14.70;99.90
24664;DHT22;12791;50.992;13.788;2023-03-13T15:02:19;14.70;99.90
24664;DHT22;12791;50.992;13.788;2023-03-13T15:04:50;14.70;99.90
24664;DHT22;12791;50.992;13.788;2023-03-13T15:07:17;14.70;99.90
24664;DHT22;12791;50.992;13.788;2023-03-13T15:09:46;14.80;99.90
24664;DHT22;12791;50.992;13.788;2023-03-13T15:12:15;14.80;99.90
24664;DHT22;12791;50.992;13.788;2023-03-13T15:14:43;14.80;99.90
24664;DHT22;12791;50.992;13.788;2023-03-13T15:17:13;14.70;99.90
24664;DHT22;12791;50.992;13.788;2023-03-13T15:19:40;14.70;99.90
24664;DHT22;12791;50.992;13.788;2023-03-13T15:22:11;14.70;99.90
24664;DHT22;12791;50.992;13.788;2023-03-13T15:24:39;14.70;99.90
24664;DHT22;12791;50.992;13.788;2023-03-13T15:27:14;14.60;99.90
24664;DHT22;12791;50.992;13.788;2023-03-13T15:29:41;14.60;99.90
24664;DHT22;12791;50.992;13.788;2023-03-13T15:32:11;14.60;99.90
24664;DHT22;12791;50.992;13.788;2023-03-13T15:34:40;14.50;99.90
24664;DHT22;12791;50.992;13.788;2023-03-13T15:37:10;14.50;99.90
24664;DHT22;12791;50.992;13.788;2023-03-13T15:39:37;14.50;99.90
24664;DHT22;12791;50.992;13.788;2023-03-13T15:42:03;14.50;99.90
24664;DHT22;12791;50.992;13.788;2023-03-13T15:44:32;14.50;99.90
24664;DHT22;12791;50.992;13.788;2023-03-13T15:46:59;14.50;99.90
24664;DHT22;12791;50.992;13.788;2023-03-13T15:49:26;14.40;99.90